METAR Data
IDs: Format: Raw Decoded Include TAF

Data at: 1347 UTC 11 Dec 2018

KRWV 111335Z AUTO 00000KT 10SM CLR 00/00 A3041 RMK AO2 T00021004
KRWV 111315Z AUTO 00000KT 10SM CLR 00/M01 A3041 RMK AO2 T00001008
KRWV 111255Z AUTO 00000KT 10SM CLR 00/M01 A3041 RMK AO2 T10001008
KRWV 111235Z AUTO 00000KT 10SM CLR 00/M01 A3040 RMK AO2 T00001011
KRWV 111215Z AUTO 00000KT 10SM CLR 00/M01 A3040 RMK AO2 T00001007
KRWV 111155Z AUTO 00000KT 10SM CLR 00/M01 A3040 RMK AO2 T00041005 10039 20004
KRWV 111135Z AUTO 00000KT 10SM CLR 02/00 A3040 RMK AO2 T00211001
KRWV 111115Z AUTO 00000KT 10SM CLR 01/00 A3040 RMK AO2 T00111002
KRWV 111055Z AUTO 00000KT 10SM CLR 01/00 A3040 RMK AO2 T00111002
KRWV 111035Z AUTO 00000KT 10SM CLR 01/00 A3040 RMK AO2 T00071002
KRWV 111015Z AUTO 00000KT 10SM CLR 01/00 A3039 RMK AO2 T00131001
KRWV 110955Z AUTO 00000KT 10SM CLR 02/00 A3039 RMK AO2 T00160000
KRWV 110935Z AUTO 00000KT 10SM CLR 02/00 A3038 RMK AO2 T00190002
KRWV 110915Z AUTO 00000KT 10SM CLR 02/00 A3039 RMK AO2 T00150002
KRWV 110855Z AUTO 00000KT 10SM CLR 02/00 A3039 RMK AO2 T00160001
KRWV 110835Z AUTO 00000KT 10SM CLR 02/00 A3040 RMK AO2 T00180003
KRWV 110815Z AUTO 00000KT 10SM CLR 02/00 A3040 RMK AO2 T00160001
KRWV 110755Z AUTO 00000KT 10SM CLR 01/00 A3040 RMK AO2 T00131001
KRWV 110735Z AUTO 00000KT 10SM CLR 03/00 A3041 RMK AO2 T00340004
KRWV 110715Z AUTO 25003KT 10SM CLR 03/00 A3041 RMK AO2 T00300001
KRWV 110655Z AUTO 00000KT 10SM CLR 02/00 A3041 RMK AO2 T00250004
KRWV 110635Z AUTO 00000KT 10SM CLR 03/00 A3041 RMK AO2 T00290004
KRWV 110615Z AUTO 00000KT 10SM CLR 02/00 A3040 RMK AO2 T00230002
KRWV 110555Z AUTO 00000KT 10SM CLR 02/01 A3041 RMK AO2 T00240006 10103 20018
KRWV 110535Z AUTO 00000KT 10SM CLR 02/00 A3041 RMK AO2 T00220004
KRWV 110515Z AUTO 00000KT 10SM CLR 02/01 A3041 RMK AO2 T00230005
KRWV 110455Z AUTO 00000KT 10SM CLR 03/01 A3041 RMK AO2 T00340008
KRWV 110435Z AUTO 00000KT 10SM CLR 03/01 A3041 RMK AO2 T00310012
KRWV 110415Z AUTO 00000KT 10SM CLR 03/01 A3041 RMK AO2 T00260006
KRWV 110355Z AUTO 00000KT 10SM CLR 04/01 A3040 RMK AO2 T00410008
KRWV 110335Z AUTO 00000KT 10SM CLR 05/01 A3040 RMK AO2 T00450009
KRWV 110315Z AUTO 00000KT 10SM CLR 04/01 A3040 RMK AO2 T00410012
KRWV 110255Z AUTO 00000KT 10SM CLR 04/01 A3040 RMK AO2 T00400012
KRWV 110235Z AUTO 00000KT 10SM CLR 05/01 A3040 RMK AO2 T00460010
KRWV 110215Z AUTO 00000KT 10SM CLR 05/01 A3040 RMK AO2 T00490010
KRWV 110155Z AUTO 00000KT 10SM CLR 06/01 A3040 RMK AO2 T00560013
KRWV 110135Z AUTO 00000KT 10SM CLR 06/01 A3041 RMK AO2 T00600014
KRWV 110115Z AUTO 00000KT 10SM CLR 06/02 A3040 RMK AO2 T00620016
KRWV 110055Z AUTO 00000KT 10SM CLR 08/01 A3040 RMK AO2 T00760014
KRWV 110035Z AUTO 00000KT 10SM CLR 07/01 A3039 RMK AO2 T00660011
KRWV 110015Z AUTO 00000KT 10SM CLR 09/01 A3039 RMK AO2 T00890007
KRWV 102355Z AUTO 00000KT 10SM CLR 10/01 A3038 RMK AO2 10144 20092 401440010
KRWV 102335Z AUTO 00000KT 10SM CLR 11/00 A3038 RMK AO2 T01131004
KRWV 102315Z AUTO 34003KT 10SM CLR 12/M01 A3037 RMK AO2 T01241009
KRWV 102255Z AUTO 35004KT 10SM CLR 13/M01 A3037 RMK AO2 T01281012
KRWV 102235Z AUTO 35004KT 10SM CLR 13/M01 A3037 RMK AO2 T01341012
KRWV 102215Z AUTO 33004KT 10SM CLR 14/M01 A3037 RMK AO2 T01381010
KRWV 102155Z AUTO 00000KT 10SM CLR 14/M01 A3037 RMK AO2 T01401006
KRWV 102135Z AUTO 28003KT 10SM CLR 14/00 A3037 RMK AO2 T01411004
KRWV 102115Z AUTO 35004KT 10SM CLR 14/00 A3036 RMK AO2 T01411002
KRWV 102055Z AUTO 33005KT 10SM CLR 14/M01 A3036 RMK AO2 T01401009
KRWV 102035Z AUTO 35005KT 10SM CLR 14/M01 A3036 RMK AO2 T01371009
KRWV 102015Z AUTO 33007KT 320V030 10SM CLR 14/00 A3037 RMK AO2 T01380003
KRWV 101955Z AUTO 33005KT 10SM CLR 14/00 A3037 RMK AO2 T01361003
KRWV 101935Z AUTO 36003KT 10SM CLR 13/M01 A3037 RMK AO2 T01311011
KRWV 101915Z AUTO 04003KT 10SM CLR 13/M01 A3038 RMK AO2 T01281005
KRWV 101855Z AUTO 33005KT 10SM CLR 13/M01 A3039 RMK AO2 T01301006
KRWV 101835Z AUTO 23003KT 10SM CLR 12/M01 A3040 RMK AO2 T01201012
KRWV 101815Z AUTO 34003KT 10SM CLR 12/00 A3040 RMK AO2 T01201004
KRWV 101755Z AUTO 35006KT 10SM CLR 12/M01 A3042 RMK AO2 T01191007 10121 20010
KRWV 101735Z AUTO 32006KT 10SM CLR 11/00 A3043 RMK AO2 T01110002
KRWV 101715Z AUTO 32006KT 10SM CLR 11/01 A3043 RMK AO2 T01100008
KRWV 101655Z AUTO 34006KT 10SM CLR 10/01 A3043 RMK AO2 T01000005
KRWV 101635Z AUTO 33005KT 10SM CLR 09/01 A3043 RMK AO2 T00930008
KRWV 101615Z AUTO 36004KT 10SM CLR 09/01 A3044 RMK AO2 T00850011
KRWV 101555Z AUTO 35005KT 10SM CLR 08/01 A3044 RMK AO2 T00780014
KRWV 101535Z AUTO 34008KT 10SM CLR 07/01 A3043 RMK AO2 T00650011
KRWV 101515Z AUTO 35007KT 10SM CLR 06/01 A3043 RMK AO2 T00570011
KRWV 101455Z AUTO 34009KT CLR 05/01 A3042 RMK AO2 T00480009
KRWV 101435Z AUTO 34007KT 10SM CLR 04/01 A3042 RMK AO2 T00390007
KRWV 101415Z AUTO 34008KT 10SM CLR 03/00 A3041 RMK AO2 T00270003
KRWV 101355Z AUTO 34007KT 10SM CLR 02/00 A3041 RMK AO2 T00171003
KRWV 101335Z AUTO 33004KT 10SM CLR 02/M01 A3041 RMK AO2 T00161005
KRWV 101315Z AUTO 33005KT 10SM CLR 01/M01 A3040 RMK AO2 T00131007
KRWV 101255Z AUTO 32004KT 10SM CLR 01/M01 A3039 RMK AO2 T00141005
KRWV 101235Z AUTO 32004KT 10SM CLR 02/00 A3039 RMK AO2 T00161004
KRWV 101215Z AUTO 33006KT 10SM CLR 02/00 A3038 RMK AO2 T00161004
KRWV 101155Z AUTO 33004KT 10SM CLR 01/00 A3038 RMK AO2 T00131003 10045 20012
KRWV 101135Z AUTO 33005KT 10SM CLR 01/00 A3037 RMK AO2 T00131002
KRWV 101115Z AUTO 32005KT 10SM CLR 02/00 A3037 RMK AO2 T00200001
KRWV 101055Z AUTO 31005KT 10SM CLR 02/00 A3036 RMK AO2 T00210002
KRWV 101035Z AUTO 32005KT 10SM CLR 02/00 A3037 RMK AO2 T00240004
KRWV 101015Z AUTO 32005KT 10SM CLR 03/01 A3037 RMK AO2 T00250007
KRWV 100955Z AUTO 32006KT 10SM CLR 03/01 A3037 RMK AO2 T00260009
KRWV 100935Z AUTO 31005KT 10SM CLR 03/01 A3037 RMK AO2 T00250010
KRWV 100915Z AUTO 31005KT 10SM CLR 02/01 A3037 RMK AO2 T00210011
KRWV 100855Z AUTO 30004KT 10SM CLR 02/01 A3037 RMK AO2 T00180011
KRWV 100835Z AUTO 00000KT 7SM CLR 02/01 A3037 RMK AO2 T00180010
KRWV 100815Z AUTO 27003KT 7SM CLR 02/01 A3037 RMK AO2 T00230015
KRWV 100755Z AUTO 30003KT 10SM CLR 03/02 A3038 RMK AO2 T00300016
KRWV 100735Z AUTO 31004KT 10SM CLR 04/02 A3038 RMK AO2 T00380022
KRWV 100715Z AUTO 32005KT 10SM CLR 04/02 A3038 RMK AO2 T00390024
KRWV 100655Z AUTO 32006KT 10SM CLR 04/03 A3038 RMK AO2 T00410025
KRWV 100635Z AUTO 32005KT 10SM CLR 04/03 A3038 RMK AO2 T00410025
KRWV 100615Z AUTO 33005KT 10SM CLR 04/03 A3038 RMK AO2 T00420027
KRWV 100555Z AUTO 33005KT 10SM CLR 05/03 A3038 RMK AO2 T00460028 10079 20045
KRWV 100535Z AUTO 33006KT 10SM CLR 05/03 A3038 RMK AO2 T00460028
KRWV 100515Z AUTO 33004KT 10SM CLR 05/03 A3038 RMK AO2 T00480029
KRWV 100455Z AUTO 34005KT 10SM CLR 05/03 A3038 RMK AO2 T00500030
KRWV 100435Z AUTO 32006KT 10SM CLR 06/03 A3038 RMK AO2 T00560031
KRWV 100415Z AUTO 32007KT 10SM CLR 06/03 A3038 RMK AO2 T00580032
KRWV 100355Z AUTO 32007KT 10SM CLR 06/03 A3037 RMK AO2 T00590032
KRWV 100335Z AUTO 32006KT 10SM CLR 06/03 A3037 RMK AO2 T00600031
KRWV 100315Z AUTO 30006KT 10SM CLR 06/03 A3037 RMK AO2 T00560031
KRWV 100255Z AUTO 30006KT 10SM CLR 05/03 A3037 RMK AO2 T00540030
KRWV 100235Z AUTO 31005KT 10SM CLR 06/03 A3036 RMK AO2 T00570032
KRWV 100215Z AUTO 30004KT 10SM CLR 05/03 A3035 RMK AO2 T00550030
KRWV 100155Z AUTO 29003KT 10SM SCT023 06/03 A3035 RMK AO2 T00560032